sensor_id;sensor_type;location;lat;lon;timestamp;P1;durP1;ratioP1;P2;durP2;ratioP2
63818;SDS011;49970;54.976;73.248;2023-12-20T00:01:05;58.80;;;23.10;;
63818;SDS011;49970;54.976;73.248;2023-12-20T00:03:31;58.00;;;24.35;;
63818;SDS011;49970;54.976;73.248;2023-12-20T00:05:57;57.83;;;24.90;;
63818;SDS011;49970;54.976;73.248;2023-12-20T00:08:24;72.88;;;25.27;;
63818;SDS011;49970;54.976;73.248;2023-12-20T00:11:53;70.28;;;25.73;;
63818;SDS011;49970;54.976;73.248;2023-12-20T00:15:22;60.50;;;26.48;;
63818;SDS011;49970;54.976;73.248;2023-12-20T00:17:49;75.78;;;26.30;;
63818;SDS011;49970;54.976;73.248;2023-12-20T00:20:15;72.88;;;28.70;;
63818;SDS011;49970;54.976;73.248;2023-12-20T00:22:41;78.65;;;32.78;;
63818;SDS011;49970;54.976;73.248;2023-12-20T00:25:08;100.60;;;34.92;;
63818;SDS011;49970;54.976;73.248;2023-12-20T00:28:39;115.47;;;43.08;;
63818;SDS011;49970;54.976;73.248;2023-12-20T00:31:05;107.15;;;46.65;;
63818;SDS011;49970;54.976;73.248;2023-12-20T00:33:31;131.23;;;47.47;;
63818;SDS011;49970;54.976;73.248;2023-12-20T00:35:58;120.97;;;50.60;;
63818;SDS011;49970;54.976;73.248;2023-12-20T00:38:24;146.60;;;57.88;;
63818;SDS011;49970;54.976;73.248;2023-12-20T00:40:51;155.07;;;61.42;;
63818;SDS011;49970;54.976;73.248;2023-12-20T00:43:17;159.88;;;63.70;;
63818;SDS011;49970;54.976;73.248;2023-12-20T00:45:43;168.60;;;63.65;;
63818;SDS011;49970;54.976;73.248;2023-12-20T00:48:09;178.52;;;64.30;;
63818;SDS011;49970;54.976;73.248;2023-12-20T00:50:36;162.10;;;64.95;;
63818;SDS011;49970;54.976;73.248;2023-12-20T00:53:02;165.50;;;63.83;;
63818;SDS011;49970;54.976;73.248;2023-12-20T00:55:28;180.98;;;62.83;;
63818;SDS011;49970;54.976;73.248;2023-12-20T00:57:55;167.52;;;63.97;;
63818;SDS011;49970;54.976;73.248;2023-12-20T01:00:21;158.65;;;57.78;;
63818;SDS011;49970;54.976;73.248;2023-12-20T01:02:47;149.48;;;57.42;;
63818;SDS011;49970;54.976;73.248;2023-12-20T01:05:15;167.30;;;56.50;;
63818;SDS011;49970;54.976;73.248;2023-12-20T01:07:41;147.88;;;53.92;;
63818;SDS011;49970;54.976;73.248;2023-12-20T01:10:08;173.75;;;57.90;;
63818;SDS011;49970;54.976;73.248;2023-12-20T01:12:35;171.20;;;55.95;;
63818;SDS011;49970;54.976;73.248;2023-12-20T01:15:02;172.80;;;60.08;;
63818;SDS011;49970;54.976;73.248;2023-12-20T01:17:29;175.98;;;60.10;;
63818;SDS011;49970;54.976;73.248;2023-12-20T01:19:55;181.43;;;58.78;;
63818;SDS011;49970;54.976;73.248;2023-12-20T01:22:21;212.85;;;67.65;;
63818;SDS011;49970;54.976;73.248;2023-12-20T01:24:48;185.88;;;65.78;;
63818;SDS011;49970;54.976;73.248;2023-12-20T01:28:19;183.38;;;68.05;;
63818;SDS011;49970;54.976;73.248;2023-12-20T01:30:45;197.25;;;71.25;;
63818;SDS011;49970;54.976;73.248;2023-12-20T01:34:14;194.88;;;68.78;;
63818;SDS011;49970;54.976;73.248;2023-12-20T01:40:39;181.55;;;63.50;;
63818;SDS011;49970;54.976;73.248;2023-12-20T01:43:09;182.95;;;62.72;;
63818;SDS011;49970;54.976;73.248;2023-12-20T01:45:37;196.15;;;69.28;;
63818;SDS011;49970;54.976;73.248;2023-12-20T01:48:03;181.98;;;69.15;;
63818;SDS011;49970;54.976;73.248;2023-12-20T01:50:31;178.45;;;65.03;;
63818;SDS011;49970;54.976;73.248;2023-12-20T01:52:59;176.40;;;68.57;;
63818;SDS011;49970;54.976;73.248;2023-12-20T01:55:29;179.32;;;69.68;;
63818;SDS011;49970;54.976;73.248;2023-12-20T01:57:57;177.68;;;67.20;;
63818;SDS011;49970;54.976;73.248;2023-12-20T02:00:25;182.95;;;71.47;;
63818;SDS011;49970;54.976;73.248;2023-12-20T02:02:54;182.18;;;72.32;;
63818;SDS011;49970;54.976;73.248;2023-12-20T02:05:29;181.60;;;70.68;;
63818;SDS011;49970;54.976;73.248;2023-12-20T02:07:56;190.52;;;75.43;;
63818;SDS011;49970;54.976;73.248;2023-12-20T02:10:23;176.18;;;72.07;;
63818;SDS011;49970;54.976;73.248;2023-12-20T02:12:50;167.35;;;68.50;;
63818;SDS011;49970;54.976;73.248;2023-12-20T02:15:16;177.90;;;73.95;;
63818;SDS011;49970;54.976;73.248;2023-12-20T02:17:42;167.93;;;71.65;;
63818;SDS011;49970;54.976;73.248;2023-12-20T02:20:11;163.98;;;70.97;;
63818;SDS011;49970;54.976;73.248;2023-12-20T02:22:37;154.88;;;71.45;;
63818;SDS011;49970;54.976;73.248;2023-12-20T02:25:03;164.93;;;72.13;;
63818;SDS011;49970;54.976;73.248;2023-12-20T02:27:30;159.80;;;73.55;;
63818;SDS011;49970;54.976;73.248;2023-12-20T02:29:56;170.90;;;75.03;;
63818;SDS011;49970;54.976;73.248;2023-12-20T02:32:23;156.02;;;67.88;;
63818;SDS011;49970;54.976;73.248;2023-12-20T02:34:53;140.98;;;65.28;;
63818;SDS011;49970;54.976;73.248;2023-12-20T02:37:20;146.13;;;61.15;;
63818;SDS011;49970;54.976;73.248;2023-12-20T02:39:47;121.35;;;50.67;;
63818;SDS011;49970;54.976;73.248;2023-12-20T02:42:13;98.97;;;42.10;;
63818;SDS011;49970;54.976;73.248;2023-12-20T02:44:39;90.13;;;39.13;;
63818;SDS011;49970;54.976;73.248;2023-12-20T02:47:05;83.40;;;35.58;;
63818;SDS011;49970;54.976;73.248;2023-12-20T02:49:48;81.03;;;33.60;;
63818;SDS011;49970;54.976;73.248;2023-12-20T02:52:14;70.80;;;32.08;;
63818;SDS011;49970;54.976;73.248;2023-12-20T02:54:41;73.20;;;31.88;;
63818;SDS011;49970;54.976;73.248;2023-12-20T02:57:07;79.32;;;34.20;;
63818;SDS011;49970;54.976;73.248;2023-12-20T02:59:34;80.38;;;31.83;;
63818;SDS011;49970;54.976;73.248;2023-12-20T03:03:04;80.95;;;34.13;;
63818;SDS011;49970;54.976;73.248;2023-12-20T03:06:33;100.30;;;34.42;;
63818;SDS011;49970;54.976;73.248;2023-12-20T03:10:03;95.40;;;33.85;;
63818;SDS011;49970;54.976;73.248;2023-12-20T03:12:29;89.93;;;34.33;;
63818;SDS011;49970;54.976;73.248;2023-12-20T03:14:56;100.35;;;37.65;;
63818;SDS011;49970;54.976;73.248;2023-12-20T03:17:22;118.38;;;38.60;;
63818;SDS011;49970;54.976;73.248;2023-12-20T03:20:51;139.75;;;64.38;;
63818;SDS011;49970;54.976;73.248;2023-12-20T03:24:21;113.65;;;49.70;;
63818;SDS011;49970;54.976;73.248;2023-12-20T03:27:50;103.60;;;40.30;;
63818;SDS011;49970;54.976;73.248;2023-12-20T03:30:16;99.60;;;39.55;;
63818;SDS011;49970;54.976;73.248;2023-12-20T03:32:43;95.03;;;40.70;;
63818;SDS011;49970;54.976;73.248;2023-12-20T03:35:10;103.97;;;40.58;;
63818;SDS011;49970;54.976;73.248;2023-12-20T03:37:36;156.48;;;57.00;;
63818;SDS011;49970;54.976;73.248;2023-12-20T03:40:02;143.32;;;52.28;;
63818;SDS011;49970;54.976;73.248;2023-12-20T03:42:29;169.65;;;59.33;;
63818;SDS011;49970;54.976;73.248;2023-12-20T03:44:55;147.98;;;49.40;;
63818;SDS011;49970;54.976;73.248;2023-12-20T03:47:22;129.57;;;47.65;;
63818;SDS011;49970;54.976;73.248;2023-12-20T03:49:48;161.52;;;57.08;;
63818;SDS011;49970;54.976;73.248;2023-12-20T03:53:18;128.32;;;44.53;;
63818;SDS011;49970;54.976;73.248;2023-12-20T03:56:48;108.63;;;41.20;;
63818;SDS011;49970;54.976;73.248;2023-12-20T04:03:56;110.57;;;44.08;;
63818;SDS011;49970;54.976;73.248;2023-12-20T04:06:22;109.20;;;42.88;;
63818;SDS011;49970;54.976;73.248;2023-12-20T04:08:48;107.18;;;44.08;;
63818;SDS011;49970;54.976;73.248;2023-12-20T04:11:14;95.13;;;40.55;;
63818;SDS011;49970;54.976;73.248;2023-12-20T04:13:40;101.63;;;43.20;;
63818;SDS011;49970;54.976;73.248;2023-12-20T04:16:07;139.63;;;54.72;;
63818;SDS011;49970;54.976;73.248;2023-12-20T04:18:33;206.25;;;68.93;;
63818;SDS011;49970;54.976;73.248;2023-12-20T04:20:59;184.45;;;68.60;;
63818;SDS011;49970;54.976;73.248;2023-12-20T04:23:26;193.90;;;64.28;;
63818;SDS011;49970;54.976;73.248;2023-12-20T04:25:52;212.93;;;75.57;;
63818;SDS011;49970;54.976;73.248;2023-12-20T04:28:19;200.75;;;75.82;;
63818;SDS011;49970;54.976;73.248;2023-12-20T04:30:47;177.20;;;67.07;;
63818;SDS011;49970;54.976;73.248;2023-12-20T04:33:13;173.90;;;67.57;;
63818;SDS011;49970;54.976;73.248;2023-12-20T04:35:40;120.95;;;49.13;;
63818;SDS011;49970;54.976;73.248;2023-12-20T04:38:08;112.10;;;48.25;;
63818;SDS011;49970;54.976;73.248;2023-12-20T04:40:35;116.28;;;49.65;;
63818;SDS011;49970;54.976;73.248;2023-12-20T04:43:01;119.85;;;52.20;;
63818;SDS011;49970;54.976;73.248;2023-12-20T04:45:27;130.52;;;53.65;;
63818;SDS011;49970;54.976;73.248;2023-12-20T04:47:54;120.68;;;51.20;;
63818;SDS011;49970;54.976;73.248;2023-12-20T04:50:21;132.35;;;54.20;;
63818;SDS011;49970;54.976;73.248;2023-12-20T04:52:47;147.73;;;58.72;;
63818;SDS011;49970;54.976;73.248;2023-12-20T04:55:14;128.07;;;55.47;;
63818;SDS011;49970;54.976;73.248;2023-12-20T04:57:40;167.50;;;68.78;;
63818;SDS011;49970;54.976;73.248;2023-12-20T05:00:07;123.95;;;53.30;;
63818;SDS011;49970;54.976;73.248;2023-12-20T05:02:36;124.15;;;55.17;;
63818;SDS011;49970;54.976;73.248;2023-12-20T05:05:02;126.28;;;51.65;;
63818;SDS011;49970;54.976;73.248;2023-12-20T05:08:32;117.72;;;48.95;;
63818;SDS011;49970;54.976;73.248;2023-12-20T05:10:58;118.85;;;47.72;;
63818;SDS011;49970;54.976;73.248;2023-12-20T05:13:25;104.82;;;43.92;;
63818;SDS011;49970;54.976;73.248;2023-12-20T05:15:51;98.65;;;42.38;;
63818;SDS011;49970;54.976;73.248;2023-12-20T05:18:17;93.18;;;40.55;;
63818;SDS011;49970;54.976;73.248;2023-12-20T05:20:44;125.60;;;49.22;;
63818;SDS011;49970;54.976;73.248;2023-12-20T05:23:11;89.88;;;38.45;;
63818;SDS011;49970;54.976;73.248;2023-12-20T05:25:39;83.63;;;36.83;;
63818;SDS011;49970;54.976;73.248;2023-12-20T05:28:05;77.22;;;33.35;;
63818;SDS011;49970;54.976;73.248;2023-12-20T05:31:07;52.30;;;27.90;;
63818;SDS011;49970;54.976;73.248;2023-12-20T05:33:33;57.65;;;29.23;;
63818;SDS011;49970;54.976;73.248;2023-12-20T05:36:11;58.97;;;32.00;;
63818;SDS011;49970;54.976;73.248;2023-12-20T05:38:39;155.65;;;62.65;;
63818;SDS011;49970;54.976;73.248;2023-12-20T05:41:05;135.95;;;65.43;;
63818;SDS011;49970;54.976;73.248;2023-12-20T05:44:10;133.40;;;59.15;;
63818;SDS011;49970;54.976;73.248;2023-12-20T05:46:36;118.88;;;51.55;;
63818;SDS011;49970;54.976;73.248;2023-12-20T05:49:03;99.15;;;43.00;;
63818;SDS011;49970;54.976;73.248;2023-12-20T05:51:30;74.43;;;35.38;;
63818;SDS011;49970;54.976;73.248;2023-12-20T05:55:00;99.18;;;40.88;;
63818;SDS011;49970;54.976;73.248;2023-12-20T05:57:27;94.05;;;38.88;;
63818;SDS011;49970;54.976;73.248;2023-12-20T05:59:53;112.88;;;39.85;;
63818;SDS011;49970;54.976;73.248;2023-12-20T06:02:20;91.22;;;40.60;;
63818;SDS011;49970;54.976;73.248;2023-12-20T06:04:46;99.05;;;39.72;;
63818;SDS011;49970;54.976;73.248;2023-12-20T06:07:12;129.27;;;46.88;;
63818;SDS011;49970;54.976;73.248;2023-12-20T06:09:39;102.95;;;39.05;;
63818;SDS011;49970;54.976;73.248;2023-12-20T06:12:06;61.65;;;27.73;;
63818;SDS011;49970;54.976;73.248;2023-12-20T06:14:34;66.68;;;29.90;;
63818;SDS011;49970;54.976;73.248;2023-12-20T06:17:00;54.30;;;27.00;;
63818;SDS011;49970;54.976;73.248;2023-12-20T06:19:27;74.20;;;34.25;;
63818;SDS011;49970;54.976;73.248;2023-12-20T06:21:53;62.75;;;32.75;;
63818;SDS011;49970;54.976;73.248;2023-12-20T06:24:20;74.30;;;38.42;;
63818;SDS011;49970;54.976;73.248;2023-12-20T06:26:47;66.30;;;34.30;;
63818;SDS011;49970;54.976;73.248;2023-12-20T06:29:13;85.03;;;39.65;;
63818;SDS011;49970;54.976;73.248;2023-12-20T06:31:39;75.05;;;36.83;;
63818;SDS011;49970;54.976;73.248;2023-12-20T06:34:05;113.03;;;48.40;;
63818;SDS011;49970;54.976;73.248;2023-12-20T06:36:32;94.88;;;43.10;;
63818;SDS011;49970;54.976;73.248;2023-12-20T06:38:58;81.50;;;36.17;;
63818;SDS011;49970;54.976;73.248;2023-12-20T06:41:24;92.93;;;37.65;;
63818;SDS011;49970;54.976;73.248;2023-12-20T06:43:51;91.28;;;37.28;;
63818;SDS011;49970;54.976;73.248;2023-12-20T06:46:18;81.95;;;38.92;;
63818;SDS011;49970;54.976;73.248;2023-12-20T06:48:44;77.88;;;37.17;;
63818;SDS011;49970;54.976;73.248;2023-12-20T06:51:15;79.50;;;35.05;;
63818;SDS011;49970;54.976;73.248;2023-12-20T06:53:42;67.05;;;33.40;;
63818;SDS011;49970;54.976;73.248;2023-12-20T06:56:10;72.30;;;35.55;;
63818;SDS011;49970;54.976;73.248;2023-12-20T06:58:39;77.43;;;35.53;;
63818;SDS011;49970;54.976;73.248;2023-12-20T07:01:10;83.57;;;34.05;;
63818;SDS011;49970;54.976;73.248;2023-12-20T07:03:37;65.28;;;30.13;;
63818;SDS011;49970;54.976;73.248;2023-12-20T07:06:03;61.67;;;29.83;;
63818;SDS011;49970;54.976;73.248;2023-12-20T07:08:30;64.30;;;30.92;;
63818;SDS011;49970;54.976;73.248;2023-12-20T07:10:56;66.97;;;30.33;;
63818;SDS011;49970;54.976;73.248;2023-12-20T07:13:22;60.67;;;29.80;;
63818;SDS011;49970;54.976;73.248;2023-12-20T07:15:49;60.50;;;30.27;;
63818;SDS011;49970;54.976;73.248;2023-12-20T07:18:15;63.28;;;29.70;;
63818;SDS011;49970;54.976;73.248;2023-12-20T07:20:41;59.72;;;30.08;;
63818;SDS011;49970;54.976;73.248;2023-12-20T07:23:08;44.33;;;24.20;;
63818;SDS011;49970;54.976;73.248;2023-12-20T07:25:35;61.60;;;26.20;;
63818;SDS011;49970;54.976;73.248;2023-12-20T07:28:02;51.28;;;26.80;;
63818;SDS011;49970;54.976;73.248;2023-12-20T07:30:28;54.88;;;25.45;;
63818;SDS011;49970;54.976;73.248;2023-12-20T07:32:54;44.50;;;23.08;;
63818;SDS011;49970;54.976;73.248;2023-12-20T07:35:21;35.78;;;19.92;;
63818;SDS011;49970;54.976;73.248;2023-12-20T07:42:05;30.63;;;15.27;;
63818;SDS011;49970;54.976;73.248;2023-12-20T07:44:33;29.98;;;16.90;;
63818;SDS011;49970;54.976;73.248;2023-12-20T07:46:59;37.33;;;19.55;;
63818;SDS011;49970;54.976;73.248;2023-12-20T07:49:26;35.53;;;18.52;;
63818;SDS011;49970;54.976;73.248;2023-12-20T07:51:53;37.75;;;18.00;;
63818;SDS011;49970;54.976;73.248;2023-12-20T07:54:19;36.83;;;18.75;;
63818;SDS011;49970;54.976;73.248;2023-12-20T07:56:46;30.38;;;18.10;;
63818;SDS011;49970;54.976;73.248;2023-12-20T07:59:12;35.20;;;18.60;;
63818;SDS011;49970;54.976;73.248;2023-12-20T08:01:39;37.47;;;19.75;;
63818;SDS011;49970;54.976;73.248;2023-12-20T08:04:05;40.67;;;21.40;;
63818;SDS011;49970;54.976;73.248;2023-12-20T08:06:31;40.70;;;20.05;;
63818;SDS011;49970;54.976;73.248;2023-12-20T08:08:57;46.30;;;21.17;;
63818;SDS011;49970;54.976;73.248;2023-12-20T08:11:24;38.25;;;18.50;;
63818;SDS011;49970;54.976;73.248;2023-12-20T08:13:50;28.10;;;16.50;;
63818;SDS011;49970;54.976;73.248;2023-12-20T08:16:16;25.30;;;14.95;;
63818;SDS011;49970;54.976;73.248;2023-12-20T08:18:43;29.45;;;15.57;;
63818;SDS011;49970;54.976;73.248;2023-12-20T08:21:09;31.40;;;15.52;;
63818;SDS011;49970;54.976;73.248;2023-12-20T08:23:37;30.83;;;17.65;;
63818;SDS011;49970;54.976;73.248;2023-12-20T08:26:06;38.17;;;18.95;;
63818;SDS011;49970;54.976;73.248;2023-12-20T08:28:33;46.15;;;21.40;;
63818;SDS011;49970;54.976;73.248;2023-12-20T08:31:02;43.58;;;20.95;;
63818;SDS011;49970;54.976;73.248;2023-12-20T08:33:28;41.80;;;19.50;;
63818;SDS011;49970;54.976;73.248;2023-12-20T08:35:54;38.90;;;18.35;;
63818;SDS011;49970;54.976;73.248;2023-12-20T08:38:21;31.33;;;18.52;;
63818;SDS011;49970;54.976;73.248;2023-12-20T08:40:47;29.48;;;18.58;;
63818;SDS011;49970;54.976;73.248;2023-12-20T08:43:14;30.83;;;18.10;;
63818;SDS011;49970;54.976;73.248;2023-12-20T08:45:40;31.40;;;18.50;;
63818;SDS011;49970;54.976;73.248;2023-12-20T08:48:06;38.25;;;17.55;;
63818;SDS011;49970;54.976;73.248;2023-12-20T08:50:33;31.48;;;19.38;;
63818;SDS011;49970;54.976;73.248;2023-12-20T08:52:59;31.00;;;18.27;;
63818;SDS011;49970;54.976;73.248;2023-12-20T08:55:25;37.78;;;18.98;;
63818;SDS011;49970;54.976;73.248;2023-12-20T08:57:53;47.10;;;21.50;;
63818;SDS011;49970;54.976;73.248;2023-12-20T09:00:20;47.55;;;21.70;;
63818;SDS011;49970;54.976;73.248;2023-12-20T09:02:49;53.53;;;23.20;;
63818;SDS011;49970;54.976;73.248;2023-12-20T09:05:16;55.47;;;25.42;;
63818;SDS011;49970;54.976;73.248;2023-12-20T09:07:42;59.45;;;24.88;;
63818;SDS011;49970;54.976;73.248;2023-12-20T09:10:09;57.47;;;26.15;;
63818;SDS011;49970;54.976;73.248;2023-12-20T09:12:35;54.60;;;25.17;;
63818;SDS011;49970;54.976;73.248;2023-12-20T09:15:03;49.33;;;23.75;;
63818;SDS011;49970;54.976;73.248;2023-12-20T09:17:30;54.88;;;26.92;;
63818;SDS011;49970;54.976;73.248;2023-12-20T09:19:56;49.75;;;24.20;;
63818;SDS011;49970;54.976;73.248;2023-12-20T09:22:23;49.47;;;23.45;;
63818;SDS011;49970;54.976;73.248;2023-12-20T09:24:49;46.15;;;24.95;;
63818;SDS011;49970;54.976;73.248;2023-12-20T09:27:15;38.60;;;22.23;;
63818;SDS011;49970;54.976;73.248;2023-12-20T09:29:41;43.70;;;20.90;;
63818;SDS011;49970;54.976;73.248;2023-12-20T09:32:08;36.03;;;20.08;;
63818;SDS011;49970;54.976;73.248;2023-12-20T09:34:34;39.88;;;19.95;;
63818;SDS011;49970;54.976;73.248;2023-12-20T09:37:00;42.08;;;20.17;;
63818;SDS011;49970;54.976;73.248;2023-12-20T09:39:26;34.22;;;20.20;;
63818;SDS011;49970;54.976;73.248;2023-12-20T09:41:59;33.85;;;19.02;;
63818;SDS011;49970;54.976;73.248;2023-12-20T09:44:28;35.67;;;17.92;;
63818;SDS011;49970;54.976;73.248;2023-12-20T09:46:54;32.88;;;17.65;;
63818;SDS011;49970;54.976;73.248;2023-12-20T09:49:22;29.33;;;19.20;;
63818;SDS011;49970;54.976;73.248;2023-12-20T09:51:52;32.88;;;18.20;;
63818;SDS011;49970;54.976;73.248;2023-12-20T09:54:27;34.10;;;20.48;;
63818;SDS011;49970;54.976;73.248;2023-12-20T09:57:00;38.45;;;19.92;;
63818;SDS011;49970;54.976;73.248;2023-12-20T09:59:30;33.42;;;19.00;;
63818;SDS011;49970;54.976;73.248;2023-12-20T10:02:05;42.10;;;18.98;;
63818;SDS011;49970;54.976;73.248;2023-12-20T10:04:44;35.60;;;18.77;;
63818;SDS011;49970;54.976;73.248;2023-12-20T10:07:13;31.10;;;19.23;;
63818;SDS011;49970;54.976;73.248;2023-12-20T10:09:39;30.35;;;18.67;;
63818;SDS011;49970;54.976;73.248;2023-12-20T10:12:07;33.42;;;20.48;;
63818;SDS011;49970;54.976;73.248;2023-12-20T10:14:34;34.90;;;20.92;;
63818;SDS011;49970;54.976;73.248;2023-12-20T10:17:06;37.85;;;19.92;;
63818;SDS011;49970;54.976;73.248;2023-12-20T10:19:43;30.48;;;18.30;;
63818;SDS011;49970;54.976;73.248;2023-12-20T10:22:14;44.22;;;21.80;;
63818;SDS011;49970;54.976;73.248;2023-12-20T10:24:46;44.70;;;23.73;;
63818;SDS011;49970;54.976;73.248;2023-12-20T10:27:12;39.60;;;23.00;;
63818;SDS011;49970;54.976;73.248;2023-12-20T10:29:38;48.75;;;24.83;;
63818;SDS011;49970;54.976;73.248;2023-12-20T10:32:24;51.70;;;26.10;;
63818;SDS011;49970;54.976;73.248;2023-12-20T10:34:52;45.67;;;22.73;;
63818;SDS011;49970;54.976;73.248;2023-12-20T10:37:19;39.78;;;21.77;;
63818;SDS011;49970;54.976;73.248;2023-12-20T10:39:50;37.53;;;21.77;;
63818;SDS011;49970;54.976;73.248;2023-12-20T10:42:21;38.20;;;22.30;;
63818;SDS011;49970;54.976;73.248;2023-12-20T10:44:51;32.20;;;21.60;;
63818;SDS011;49970;54.976;73.248;2023-12-20T10:47:19;36.97;;;21.95;;
63818;SDS011;49970;54.976;73.248;2023-12-20T10:49:46;34.95;;;21.52;;
63818;SDS011;49970;54.976;73.248;2023-12-20T10:52:13;39.75;;;24.02;;
63818;SDS011;49970;54.976;73.248;2023-12-20T10:54:40;40.47;;;24.10;;
63818;SDS011;49970;54.976;73.248;2023-12-20T10:57:06;49.45;;;26.60;;
63818;SDS011;49970;54.976;73.248;2023-12-20T10:59:33;53.42;;;27.45;;
63818;SDS011;49970;54.976;73.248;2023-12-20T11:02:03;48.28;;;25.95;;
63818;SDS011;49970;54.976;73.248;2023-12-20T11:04:44;48.50;;;25.67;;
63818;SDS011;49970;54.976;73.248;2023-12-20T11:07:21;43.80;;;23.98;;
63818;SDS011;49970;54.976;73.248;2023-12-20T11:09:57;45.58;;;23.98;;
63818;SDS011;49970;54.976;73.248;2023-12-20T11:13:28;42.92;;;25.15;;
63818;SDS011;49970;54.976;73.248;2023-12-20T11:15:38;48.50;;;27.38;;
63818;SDS011;49970;54.976;73.248;2023-12-20T11:18:04;59.30;;;28.33;;
63818;SDS011;49970;54.976;73.248;2023-12-20T11:20:38;47.75;;;25.75;;
63818;SDS011;49970;54.976;73.248;2023-12-20T11:23:06;51.70;;;29.33;;
63818;SDS011;49970;54.976;73.248;2023-12-20T11:28:23;47.42;;;24.33;;
63818;SDS011;49970;54.976;73.248;2023-12-20T11:30:51;50.42;;;27.08;;
63818;SDS011;49970;54.976;73.248;2023-12-20T11:33:25;53.03;;;28.17;;
63818;SDS011;49970;54.976;73.248;2023-12-20T11:37:20;47.22;;;24.95;;
63818;SDS011;49970;54.976;73.248;2023-12-20T11:42:49;55.35;;;28.55;;
63818;SDS011;49970;54.976;73.248;2023-12-20T11:45:17;87.68;;;41.28;;
63818;SDS011;49970;54.976;73.248;2023-12-20T11:47:49;116.93;;;54.75;;
63818;SDS011;49970;54.976;73.248;2023-12-20T11:50:17;112.82;;;50.60;;
63818;SDS011;49970;54.976;73.248;2023-12-20T11:52:44;51.33;;;26.85;;
63818;SDS011;49970;54.976;73.248;2023-12-20T11:55:10;49.47;;;27.10;;
63818;SDS011;49970;54.976;73.248;2023-12-20T11:57:37;52.28;;;26.70;;
63818;SDS011;49970;54.976;73.248;2023-12-20T12:00:03;69.35;;;40.20;;
63818;SDS011;49970;54.976;73.248;2023-12-20T12:02:37;63.85;;;33.13;;
63818;SDS011;49970;54.976;73.248;2023-12-20T12:05:04;103.82;;;46.75;;
63818;SDS011;49970;54.976;73.248;2023-12-20T12:07:33;67.57;;;34.05;;
63818;SDS011;49970;54.976;73.248;2023-12-20T12:10:01;67.10;;;36.15;;
63818;SDS011;49970;54.976;73.248;2023-12-20T12:12:29;75.45;;;42.42;;
63818;SDS011;49970;54.976;73.248;2023-12-20T12:14:56;65.45;;;35.70;;
63818;SDS011;49970;54.976;73.248;2023-12-20T12:17:23;83.82;;;45.13;;
63818;SDS011;49970;54.976;73.248;2023-12-20T12:20:01;91.30;;;41.88;;
63818;SDS011;49970;54.976;73.248;2023-12-20T12:22:41;76.65;;;37.63;;
63818;SDS011;49970;54.976;73.248;2023-12-20T12:25:10;71.78;;;35.58;;
63818;SDS011;49970;54.976;73.248;2023-12-20T12:27:41;76.00;;;35.08;;
63818;SDS011;49970;54.976;73.248;2023-12-20T12:31:13;64.60;;;31.00;;
63818;SDS011;49970;54.976;73.248;2023-12-20T12:35:08;69.43;;;31.52;;
63818;SDS011;49970;54.976;73.248;2023-12-20T12:39:05;60.33;;;30.08;;
63818;SDS011;49970;54.976;73.248;2023-12-20T12:43:01;68.43;;;30.42;;
63818;SDS011;49970;54.976;73.248;2023-12-20T12:46:57;67.50;;;33.80;;
63818;SDS011;49970;54.976;73.248;2023-12-20T12:50:54;75.97;;;31.90;;
63818;SDS011;49970;54.976;73.248;2023-12-20T12:53:22;71.28;;;31.45;;
63818;SDS011;49970;54.976;73.248;2023-12-20T12:55:50;72.43;;;33.20;;
63818;SDS011;49970;54.976;73.248;2023-12-20T12:58:16;66.10;;;31.58;;
63818;SDS011;49970;54.976;73.248;2023-12-20T13:00:42;60.90;;;31.05;;
63818;SDS011;49970;54.976;73.248;2023-12-20T13:03:23;73.05;;;36.28;;
63818;SDS011;49970;54.976;73.248;2023-12-20T13:05:50;67.35;;;32.95;;
63818;SDS011;49970;54.976;73.248;2023-12-20T13:08:29;68.55;;;33.88;;
63818;SDS011;49970;54.976;73.248;2023-12-20T13:10:55;72.90;;;31.13;;
63818;SDS011;49970;54.976;73.248;2023-12-20T13:13:23;76.72;;;33.42;;
63818;SDS011;49970;54.976;73.248;2023-12-20T13:15:50;80.63;;;36.28;;
63818;SDS011;49970;54.976;73.248;2023-12-20T13:18:18;77.78;;;36.47;;
63818;SDS011;49970;54.976;73.248;2023-12-20T13:20:44;74.95;;;35.80;;
63818;SDS011;49970;54.976;73.248;2023-12-20T13:23:29;68.40;;;35.80;;
63818;SDS011;49970;54.976;73.248;2023-12-20T13:27:25;73.75;;;35.88;;
63818;SDS011;49970;54.976;73.248;2023-12-20T13:30:28;84.68;;;45.38;;
63818;SDS011;49970;54.976;73.248;2023-12-20T13:32:55;75.38;;;36.03;;
63818;SDS011;49970;54.976;73.248;2023-12-20T13:35:21;76.15;;;35.95;;
63818;SDS011;49970;54.976;73.248;2023-12-20T13:37:47;57.05;;;29.85;;
63818;SDS011;49970;54.976;73.248;2023-12-20T13:40:14;54.47;;;27.08;;
63818;SDS011;49970;54.976;73.248;2023-12-20T13:42:40;53.00;;;26.55;;
63818;SDS011;49970;54.976;73.248;2023-12-20T13:45:07;52.17;;;26.85;;
63818;SDS011;49970;54.976;73.248;2023-12-20T13:47:33;38.50;;;21.15;;
63818;SDS011;49970;54.976;73.248;2023-12-20T13:50:08;43.63;;;21.80;;
63818;SDS011;49970;54.976;73.248;2023-12-20T13:52:35;38.40;;;22.23;;
63818;SDS011;49970;54.976;73.248;2023-12-20T13:55:02;31.52;;;20.13;;
63818;SDS011;49970;54.976;73.248;2023-12-20T13:57:28;39.58;;;20.65;;
63818;SDS011;49970;54.976;73.248;2023-12-20T13:59:57;34.25;;;18.52;;
63818;SDS011;49970;54.976;73.248;2023-12-20T14:02:23;35.97;;;19.75;;
63818;SDS011;49970;54.976;73.248;2023-12-20T14:05:01;38.08;;;18.27;;
63818;SDS011;49970;54.976;73.248;2023-12-20T14:07:27;37.20;;;18.75;;
63818;SDS011;49970;54.976;73.248;2023-12-20T14:09:55;32.33;;;18.65;;
63818;SDS011;49970;54.976;73.248;2023-12-20T14:12:21;32.45;;;19.70;;
63818;SDS011;49970;54.976;73.248;2023-12-20T14:14:47;31.33;;;18.25;;
63818;SDS011;49970;54.976;73.248;2023-12-20T14:17:13;36.20;;;18.98;;
63818;SDS011;49970;54.976;73.248;2023-12-20T14:19:40;32.22;;;18.48;;
63818;SDS011;49970;54.976;73.248;2023-12-20T14:22:06;34.53;;;18.80;;
63818;SDS011;49970;54.976;73.248;2023-12-20T14:24:32;29.23;;;18.88;;
63818;SDS011;49970;54.976;73.248;2023-12-20T14:27:06;27.15;;;19.30;;
63818;SDS011;49970;54.976;73.248;2023-12-20T14:29:35;34.58;;;19.50;;
63818;SDS011;49970;54.976;73.248;2023-12-20T14:32:02;36.50;;;18.77;;
63818;SDS011;49970;54.976;73.248;2023-12-20T14:34:30;35.10;;;19.63;;
63818;SDS011;49970;54.976;73.248;2023-12-20T14:36:57;33.72;;;19.25;;
63818;SDS011;49970;54.976;73.248;2023-12-20T14:39:23;45.58;;;19.45;;
63818;SDS011;49970;54.976;73.248;2023-12-20T14:41:49;35.42;;;19.45;;
63818;SDS011;49970;54.976;73.248;2023-12-20T14:44:15;31.40;;;17.63;;
63818;SDS011;49970;54.976;73.248;2023-12-20T14:46:43;37.30;;;18.58;;
63818;SDS011;49970;54.976;73.248;2023-12-20T14:49:09;31.30;;;17.52;;
63818;SDS011;49970;54.976;73.248;2023-12-20T14:51:36;30.67;;;18.30;;
63818;SDS011;49970;54.976;73.248;2023-12-20T14:54:03;34.45;;;21.85;;
63818;SDS011;49970;54.976;73.248;2023-12-20T14:56:29;43.63;;;24.23;;